Time;durP1;ratioP1;P1;durP2;ratioP2;P2;SDS_P1;SDS_P2;PMS_P1;PMS_P2;Temp;Humidity;BMP_temperature;BMP_pressure;BME280_temperature;BME280_humidity;BME280_pressure;Samples;Min_cycle;Max_cycle;Signal;HPM_P1;HPM_P2
2023/02/20 00:00:31;;;;;;;1.23;0.70;;;;;;;;;;5028991;28;20045;-64
2023/02/20 00:03:02;;;;;;;1.75;0.80;;;;;;;;;;5050285;28;20499;-63
2023/02/20 00:05:32;;;;;;;1.98;0.77;;;;;;;;;;5071244;28;20407;-64
2023/02/20 00:08:02;;;;;;;2.70;0.75;;;;;;;;;;5012076;28;20057;-64
2023/02/20 00:10:33;;;;;;;2.35;1.25;;;;;;;;;;4996066;28;20411;-64
2023/02/20 00:13:03;;;;;;;1.92;0.80;;;;;;;;;;5012913;28;20075;-64
2023/02/20 00:15:36;;;;;;;1.30;0.63;;;;;;;;;;5028987;28;20045;-65
2023/02/20 00:18:06;;;;;;;3.97;0.98;;;;;;;;;;5028922;28;20053;-64
2023/02/20 00:20:36;;;;;;;1.48;0.90;;;;;;;;;;5013408;28;20077;-64
2023/02/20 00:23:06;;;;;;;1.35;0.90;;;;;;;;;;4999342;28;20050;-64
2023/02/20 00:25:36;;;;;;;5.13;1.00;;;;;;;;;;4999589;28;20046;-64
2023/02/20 00:28:06;;;;;;;2.45;0.90;;;;;;;;;;4983037;28;20061;-64
2023/02/20 00:30:36;;;;;;;2.58;0.90;;;;;;;;;;4992666;28;20046;-63
2023/02/20 00:33:06;;;;;;;3.55;0.80;;;;;;;;;;4960426;28;20061;-65
2023/02/20 00:35:37;;;;;;;1.92;0.95;;;;;;;;;;4973251;28;20051;-64
2023/02/20 00:38:07;;;;;;;3.05;1.08;;;;;;;;;;4965943;28;20062;-64
2023/02/20 00:40:37;;;;;;;2.08;0.80;;;;;;;;;;4934880;29;20067;-64
2023/02/20 00:43:07;;;;;;;1.58;0.80;;;;;;;;;;4934899;29;20071;-64
2023/02/20 00:45:37;;;;;;;1.73;0.82;;;;;;;;;;4928764;28;20067;-63
2023/02/20 00:48:07;;;;;;;2.33;1.20;;;;;;;;;;4953984;28;20450;-64
2023/02/20 00:50:40;;;;;;;3.67;1.10;;;;;;;;;;4986004;28;20066;-63
2023/02/20 00:53:12;;;;;;;1.55;0.70;;;;;;;;;;4953382;28;20066;-64
2023/02/20 00:55:42;;;;;;;1.88;0.70;;;;;;;;;;4953807;28;20415;-63
2023/02/20 00:58:13;;;;;;;2.63;1.02;;;;;;;;;;4953860;28;20055;-64
2023/02/20 01:00:44;;;;;;;2.15;1.10;;;;;;;;;;4956907;28;20170;-64
2023/02/20 01:03:14;;;;;;;2.83;1.38;;;;;;;;;;4992440;28;20058;-63
2023/02/20 01:05:44;;;;;;;1.70;0.90;;;;;;;;;;4972635;28;20065;-63
2023/02/20 01:08:15;;;;;;;2.28;1.00;;;;;;;;;;4972816;28;20066;-63
2023/02/20 01:10:44;;;;;;;5.05;1.02;;;;;;;;;;4972544;28;20518;-63
2023/02/20 01:13:14;;;;;;;2.28;0.75;;;;;;;;;;4982541;28;20093;-63
2023/02/20 01:15:45;;;;;;;1.45;0.88;;;;;;;;;;5001853;28;20060;-64
2023/02/20 01:18:16;;;;;;;2.88;1.00;;;;;;;;;;5011778;28;20050;-63
2023/02/20 01:20:45;;;;;;;2.83;1.02;;;;;;;;;;4995256;28;20053;-64
2023/02/20 01:23:15;;;;;;;2.63;1.15;;;;;;;;;;4991994;28;20046;-63
2023/02/20 01:25:45;;;;;;;2.35;0.80;;;;;;;;;;4991769;28;20062;-64
2023/02/20 01:28:15;;;;;;;1.92;0.68;;;;;;;;;;4976051;28;20061;-63
2023/02/20 01:30:45;;;;;;;1.38;0.90;;;;;;;;;;4972114;28;20565;-64
2023/02/20 01:33:15;;;;;;;2.08;0.90;;;;;;;;;;4971913;28;20054;-64
2023/02/20 01:35:44;;;;;;;2.08;0.70;;;;;;;;;;4972277;28;20058;-63
2023/02/20 01:38:14;;;;;;;3.33;0.93;;;;;;;;;;4972265;28;20054;-63
2023/02/20 01:40:48;;;;;;;2.10;1.10;;;;;;;;;;4972071;28;20526;-63
2023/02/20 01:43:18;;;;;;;4.50;0.90;;;;;;;;;;4972085;28;20054;-63
2023/02/20 01:45:48;;;;;;;7.22;1.02;;;;;;;;;;4971797;28;20055;-63
2023/02/20 01:48:25;;;;;;;2.38;1.45;;;;;;;;;;4955831;28;20571;-64
2023/02/20 01:50:58;;;;;;;2.53;0.82;;;;;;;;;;4955673;28;20039;-63
2023/02/20 01:53:31;;;;;;;1.85;0.80;;;;;;;;;;4991299;28;20066;-63
2023/02/20 01:56:06;;;;;;;1.98;0.80;;;;;;;;;;4971729;28;20055;-63
2023/02/20 01:58:41;;;;;;;1.52;0.73;;;;;;;;;;4952439;29;20077;-63
2023/02/20 02:01:12;;;;;;;1.58;0.73;;;;;;;;;;4940495;29;20064;-63
2023/02/20 02:03:46;;;;;;;1.55;0.80;;;;;;;;;;4918129;29;20062;-62
2023/02/20 02:06:16;;;;;;;1.85;0.82;;;;;;;;;;4945620;29;20059;-63
2023/02/20 02:08:46;;;;;;;1.08;0.75;;;;;;;;;;4952336;29;20570;-63
2023/02/20 02:11:23;;;;;;;1.48;0.63;;;;;;;;;;4952055;29;20055;-63
2023/02/20 02:13:53;;;;;;;1.25;0.63;;;;;;;;;;4952396;29;20051;-64
2023/02/20 02:16:44;;;;;;;3.20;0.82;;;;;;;;;;4952375;29;20059;-63
2023/02/20 02:19:44;;;;;;;1.75;0.80;;;;;;;;;;4952368;29;20082;-63
2023/02/20 02:23:05;;;;;;;2.05;0.80;;;;;;;;;;4933307;29;20074;-63
2023/02/20 02:26:09;;;;;;;1.48;0.55;;;;;;;;;;4931832;29;20055;-63
2023/02/20 02:29:09;;;;;;;1.58;0.70;;;;;;;;;;4952157;29;20058;-63
2023/02/20 02:32:24;;;;;;;2.45;0.70;;;;;;;;;;4946127;29;20051;-63
2023/02/20 02:35:21;;;;;;;1.27;0.73;;;;;;;;;;4913886;29;20056;-63
2023/02/20 02:38:17;;;;;;;1.48;0.90;;;;;;;;;;4935879;29;20408;-63
2023/02/20 02:41:12;;;;;;;1.52;0.60;;;;;;;;;;4920117;29;20095;-63
2023/02/20 02:44:09;;;;;;;1.45;0.55;;;;;;;;;;4951439;28;20212;-63
2023/02/20 02:47:06;;;;;;;2.85;1.02;;;;;;;;;;4932206;29;20663;-63
2023/02/20 02:49:55;;;;;;;1.92;0.60;;;;;;;;;;4932437;29;20067;-64
2023/02/20 02:52:47;;;;;;;2.00;0.73;;;;;;;;;;4894763;29;20052;-63
2023/02/20 02:55:23;;;;;;;2.75;0.70;;;;;;;;;;4860378;29;20057;-63
2023/02/20 02:57:54;;;;;;;2.63;0.70;;;;;;;;;;4875719;29;20061;-63
2023/02/20 03:00:41;;;;;;;1.33;0.60;;;;;;;;;;4876222;29;20061;-63
2023/02/20 03:03:15;;;;;;;1.58;0.80;;;;;;;;;;4845173;29;20053;-63
2023/02/20 03:05:48;;;;;;;1.67;0.70;;;;;;;;;;4856879;29;20053;-65
2023/02/20 03:08:21;;;;;;;;;;;;;;;;;;4857420;29;20581;-63
2023/02/20 03:10:52;;;;;;;1.45;0.55;;;;;;;;;;4900759;29;19923;-63
2023/02/20 03:16:20;;;;;;;1.48;0.43;;;;;;;;;;4913431;29;20060;-63
2023/02/20 03:18:54;;;;;;;3.30;0.80;;;;;;;;;;4897447;29;20056;-63
2023/02/20 03:21:26;;;;;;;1.80;0.70;;;;;;;;;;4875317;29;20106;-63
2023/02/20 03:24:00;;;;;;;1.00;0.70;;;;;;;;;;4854024;29;20053;-63
2023/02/20 03:26:34;;;;;;;1.73;0.50;;;;;;;;;;4871764;29;20069;-63
2023/02/20 03:29:18;;;;;;;0.60;0.40;;;;;;;;;;4858744;29;20045;-63
2023/02/20 03:43:24;;;;;;;1.10;0.60;;;;;;;;;;4887647;29;20052;-63
2023/02/20 03:46:05;;;;;;;1.00;0.75;;;;;;;;;;4912775;29;20404;-63
2023/02/20 03:48:56;;;;;;;1.63;0.80;;;;;;;;;;4912493;29;20411;-63
2023/02/20 03:54:29;;;;;;;0.90;0.70;;;;;;;;;;4931343;29;20058;-63
2023/02/20 03:57:10;;;;;;;0.77;0.73;;;;;;;;;;4888370;29;20048;-63
2023/02/20 04:00:14;;;;;;;0.70;0.50;;;;;;;;;;4914958;29;20104;-63
2023/02/20 04:02:54;;;;;;;1.63;0.30;;;;;;;;;;4862652;29;20062;-63
2023/02/20 04:05:36;;;;;;;0.98;0.40;;;;;;;;;;4841488;29;20069;-63
2023/02/20 04:08:09;;;;;;;1.38;0.40;;;;;;;;;;4878165;29;20072;-63
2023/02/20 04:11:08;;;;;;;0.85;0.30;;;;;;;;;;4878362;29;20541;-63
2023/02/20 04:13:39;;;;;;;1.92;0.50;;;;;;;;;;4840994;29;20062;-63
2023/02/20 04:16:10;;;;;;;2.25;0.70;;;;;;;;;;4804484;29;20068;-63
2023/02/20 04:18:41;;;;;;;1.02;0.32;;;;;;;;;;4812831;29;20531;-63
2023/02/20 04:21:30;;;;;;;1.27;0.98;;;;;;;;;;4828097;29;20420;-63
2023/02/20 04:24:11;;;;;;;1.33;0.47;;;;;;;;;;4804792;29;20059;-63
2023/02/20 04:26:42;;;;;;;0.85;0.52;;;;;;;;;;4852980;29;20053;-64
2023/02/20 04:29:13;;;;;;;1.73;0.55;;;;;;;;;;4812162;29;20078;-63
2023/02/20 04:31:44;;;;;;;0.90;0.28;;;;;;;;;;4841071;29;20050;-63
2023/02/20 04:34:15;;;;;;;0.95;0.60;;;;;;;;;;4798966;29;20415;-63
2023/02/20 04:36:47;;;;;;;0.73;0.50;;;;;;;;;;4772519;29;20063;-63
2023/02/20 04:39:21;;;;;;;0.40;0.25;;;;;;;;;;4759324;30;20056;-63
2023/02/20 04:41:51;;;;;;;0.65;0.40;;;;;;;;;;4786623;29;20540;-63
2023/02/20 04:44:30;;;;;;;0.73;0.60;;;;;;;;;;4786429;29;20372;-63
2023/02/20 04:47:07;;;;;;;0.63;0.50;;;;;;;;;;4786348;29;20055;-63
2023/02/20 04:49:37;;;;;;;0.75;0.13;;;;;;;;;;4787917;29;20515;-64
2023/02/20 04:52:09;;;;;;;0.50;0.22;;;;;;;;;;4804250;29;20051;-63
2023/02/20 04:54:40;;;;;;;0.43;0.40;;;;;;;;;;4774655;29;20058;-63
2023/02/20 04:57:12;;;;;;;;;;;;;;;;;;4804630;29;20051;-64
2023/02/20 04:59:42;;;;;;;0.35;0.30;;;;;;;;;;4840562;29;20401;-63
2023/02/20 05:02:12;;;;;;;0.52;0.40;;;;;;;;;;4757935;29;20056;-63
2023/02/20 05:04:41;;;;;;;3.55;0.60;;;;;;;;;;4758406;30;20478;-64
2023/02/20 05:07:11;;;;;;;1.77;0.30;;;;;;;;;;4814167;29;20059;-63
2023/02/20 05:09:43;;;;;;;0.82;0.28;;;;;;;;;;4800500;29;20082;-64
2023/02/20 05:12:12;;;;;;;0.52;0.43;;;;;;;;;;4820428;29;20077;-63
2023/02/20 05:14:42;;;;;;;3.30;0.43;;;;;;;;;;4880901;29;20540;-64
2023/02/20 05:17:12;;;;;;;2.10;0.45;;;;;;;;;;4897834;29;20452;-63
2023/02/20 05:19:42;;;;;;;0.73;0.30;;;;;;;;;;4915126;29;20056;-64
2023/02/20 05:22:18;;;;;;;1.08;0.45;;;;;;;;;;4955429;28;20058;-64
2023/02/20 05:24:49;;;;;;;0.50;0.40;;;;;;;;;;4970226;28;20416;-63
2023/02/20 05:27:21;;;;;;;0.95;0.30;;;;;;;;;;4943641;28;20059;-64
2023/02/20 05:29:57;;;;;;;0.63;0.50;;;;;;;;;;4968461;28;20546;-64
2023/02/20 05:32:28;;;;;;;0.70;0.20;;;;;;;;;;4953111;28;20059;-64
2023/02/20 05:34:58;;;;;;;0.68;0.25;;;;;;;;;;4951634;28;20048;-64
2023/02/20 05:37:28;;;;;;;0.43;0.32;;;;;;;;;;4947799;28;20062;-63
2023/02/20 05:40:00;;;;;;;0.30;0.20;;;;;;;;;;4994446;28;20061;-63
2023/02/20 05:42:30;;;;;;;0.95;0.22;;;;;;;;;;4995352;28;20532;-63
2023/02/20 05:45:01;;;;;;;0.47;0.30;;;;;;;;;;5003326;28;20077;-64
2023/02/20 05:47:31;;;;;;;0.55;0.32;;;;;;;;;;4978579;28;20058;-64
2023/02/20 05:50:01;;;;;;;0.80;0.28;;;;;;;;;;4994568;28;20046;-64
2023/02/20 05:52:30;;;;;;;1.55;0.40;;;;;;;;;;5014642;28;20072;-63
2023/02/20 05:55:00;;;;;;;0.22;0.22;;;;;;;;;;5015245;28;20064;-64
2023/02/20 05:57:30;;;;;;;0.43;0.30;;;;;;;;;;5031345;28;20045;-64
2023/02/20 06:00:00;;;;;;;0.50;0.20;;;;;;;;;;5014675;28;20053;-63
2023/02/20 06:02:38;;;;;;;1.95;0.40;;;;;;;;;;5033220;28;20050;-63
2023/02/20 06:05:08;;;;;;;0.20;0.20;;;;;;;;;;5033293;28;20050;-64
2023/02/20 06:07:38;;;;;;;0.85;0.25;;;;;;;;;;5026569;28;20412;-64
2023/02/20 06:10:08;;;;;;;0.50;0.30;;;;;;;;;;5034111;28;20052;-64
2023/02/20 06:12:38;;;;;;;0.70;0.30;;;;;;;;;;5052906;28;20489;-64
2023/02/20 06:15:08;;;;;;;0.20;0.13;;;;;;;;;;5052905;28;20052;-64
2023/02/20 06:17:37;;;;;;;0.47;0.15;;;;;;;;;;5051995;28;20049;-64
2023/02/20 06:20:08;;;;;;;2.17;0.50;;;;;;;;;;5052789;28;20055;-63
2023/02/20 06:22:38;;;;;;;0.40;0.30;;;;;;;;;;5017318;28;20496;-64
2023/02/20 06:25:08;;;;;;;1.85;0.35;;;;;;;;;;5050863;28;20060;-63
2023/02/20 06:27:39;;;;;;;0.40;0.13;;;;;;;;;;5034362;28;20057;-63
2023/02/20 06:30:09;;;;;;;0.50;0.20;;;;;;;;;;5052595;28;20056;-63
2023/02/20 06:32:40;;;;;;;0.77;0.20;;;;;;;;;;5052787;28;20040;-63
2023/02/20 06:35:10;;;;;;;1.58;0.40;;;;;;;;;;5052628;28;20041;-64
2023/02/20 06:37:42;;;;;;;0.32;0.32;;;;;;;;;;5049771;28;20049;-63
2023/02/20 06:40:12;;;;;;;0.75;0.28;;;;;;;;;;5000199;28;20060;-64
2023/02/20 06:42:42;;;;;;;3.13;0.15;;;;;;;;;;5000448;28;20553;-64
2023/02/20 06:45:12;;;;;;;0.50;0.43;;;;;;;;;;5016750;28;20390;-63
2023/02/20 06:47:43;;;;;;;1.02;0.20;;;;;;;;;;5017673;28;20060;-63
2023/02/20 06:50:13;;;;;;;0.32;0.20;;;;;;;;;;5000586;28;20084;-63
2023/02/20 06:52:42;;;;;;;1.42;0.30;;;;;;;;;;5049875;28;20072;-64
2023/02/20 06:55:12;;;;;;;0.38;0.20;;;;;;;;;;5049578;28;20497;-64
2023/02/20 06:57:42;;;;;;;1.83;0.43;;;;;;;;;;5049837;28;20504;-63
2023/02/20 07:00:14;;;;;;;0.57;0.52;;;;;;;;;;5017540;28;20053;-64
2023/02/20 07:02:44;;;;;;;1.92;0.28;;;;;;;;;;5017450;28;20519;-63
2023/02/20 07:05:13;;;;;;;0.45;0.20;;;;;;;;;;5032682;28;20535;-63
2023/02/20 07:07:43;;;;;;;2.78;0.55;;;;;;;;;;5049634;28;20437;-63
2023/02/20 07:10:13;;;;;;;1.92;0.32;;;;;;;;;;5016689;28;20528;-63
2023/02/20 07:12:43;;;;;;;0.57;0.30;;;;;;;;;;5016499;28;20060;-64
2023/02/20 07:15:12;;;;;;;1.75;0.22;;;;;;;;;;5033090;28;20504;-63
2023/02/20 07:17:42;;;;;;;0.30;0.20;;;;;;;;;;5051825;28;20051;-64
2023/02/20 07:20:13;;;;;;;2.25;2.15;;;;;;;;;;5033238;28;20057;-64
2023/02/20 07:22:50;;;;;;;0.25;0.20;;;;;;;;;;4983646;28;20056;-63
2023/02/20 07:25:21;;;;;;;0.98;0.15;;;;;;;;;;5049574;28;20401;-64
2023/02/20 07:27:51;;;;;;;0.63;0.15;;;;;;;;;;5051337;28;20045;-63
2023/02/20 07:30:23;;;;;;;0.47;0.25;;;;;;;;;;5016521;28;20378;-63
2023/02/20 07:32:53;;;;;;;;;;;;;;;;;;5033812;28;20057;-63
2023/02/20 07:35:22;;;;;;;0.38;0.28;;;;;;;;;;5051770;28;19920;-64
2023/02/20 07:37:53;;;;;;;0.30;0.22;;;;;;;;;;5048963;28;20081;-64
2023/02/20 07:40:23;;;;;;;0.90;0.22;;;;;;;;;;5049087;28;20068;-64
2023/02/20 07:42:53;;;;;;;0.47;0.35;;;;;;;;;;5049141;28;20053;-63
2023/02/20 07:45:23;;;;;;;0.40;0.20;;;;;;;;;;5049270;28;20050;-64
2023/02/20 07:47:53;;;;;;;0.28;0.10;;;;;;;;;;5049047;28;20484;-64
2023/02/20 07:50:23;;;;;;;1.98;0.55;;;;;;;;;;5016074;28;20053;-64
2023/02/20 07:52:54;;;;;;;1.95;0.30;;;;;;;;;;5048880;28;20508;-64
2023/02/20 07:55:24;;;;;;;0.30;0.20;;;;;;;;;;5032286;28;20063;-64
2023/02/20 07:57:56;;;;;;;1.85;0.22;;;;;;;;;;5032198;28;20497;-64
2023/02/20 08:00:29;;;;;;;1.00;0.20;;;;;;;;;;5033307;28;20057;-63
2023/02/20 08:02:59;;;;;;;0.22;0.22;;;;;;;;;;5048689;28;20097;-64
2023/02/20 08:05:29;;;;;;;0.50;0.30;;;;;;;;;;5000606;28;20068;-63
2023/02/20 08:08:14;;;;;;;2.92;0.52;;;;;;;;;;5048573;28;20053;-63
2023/02/20 08:10:44;;;;;;;0.28;0.22;;;;;;;;;;5016683;28;20053;-63
2023/02/20 08:13:15;;;;;;;1.25;0.20;;;;;;;;;;5048845;28;20478;-64
2023/02/20 08:15:46;;;;;;;0.30;0.22;;;;;;;;;;5050071;28;20068;-64
2023/02/20 08:18:17;;;;;;;0.77;0.35;;;;;;;;;;5049199;28;20500;-64
2023/02/20 08:20:51;;;;;;;0.38;0.20;;;;;;;;;;5051071;28;20066;-63
2023/02/20 08:23:24;;;;;;;0.60;0.30;;;;;;;;;;5032838;28;20080;-63
2023/02/20 08:25:54;;;;;;;0.40;0.20;;;;;;;;;;5051194;28;20053;-64
2023/02/20 08:28:24;;;;;;;0.20;0.17;;;;;;;;;;5016073;28;20060;-64
2023/02/20 08:30:54;;;;;;;2.08;0.40;;;;;;;;;;5049059;28;20041;-63
2023/02/20 08:33:24;;;;;;;0.75;0.30;;;;;;;;;;5051047;28;20515;-64
2023/02/20 08:35:56;;;;;;;0.90;0.32;;;;;;;;;;5032580;28;20060;-64
2023/02/20 08:38:45;;;;;;;1.23;0.40;;;;;;;;;;5032233;28;20055;-64
2023/02/20 08:41:15;;;;;;;3.28;0.30;;;;;;;;;;5049984;28;20056;-63
2023/02/20 08:43:45;;;;;;;0.40;0.20;;;;;;;;;;5054160;28;20068;-64
2023/02/20 08:46:15;;;;;;;0.60;0.40;;;;;;;;;;5054570;28;20053;-64
2023/02/20 08:48:46;;;;;;;5.38;0.63;;;;;;;;;;5019355;28;20064;-63
2023/02/20 08:51:20;;;;;;;2.90;0.45;;;;;;;;;;5019362;28;20068;-63
2023/02/20 08:53:50;;;;;;;2.88;0.40;;;;;;;;;;5035654;28;20049;-64
2023/02/20 08:56:20;;;;;;;0.60;0.30;;;;;;;;;;5054594;28;20404;-64
2023/02/20 08:58:52;;;;;;;0.40;0.20;;;;;;;;;;5054279;28;20049;-64
2023/02/20 09:01:22;;;;;;;2.53;0.22;;;;;;;;;;5054254;28;20374;-63
2023/02/20 09:03:52;;;;;;;0.45;0.30;;;;;;;;;;5019248;28;20064;-63
2023/02/20 09:06:24;;;;;;;2.97;0.40;;;;;;;;;;5053605;28;20493;-63
2023/02/20 09:08:55;;;;;;;1.42;0.32;;;;;;;;;;5074159;28;20048;-63
2023/02/20 09:11:25;;;;;;;2.40;0.45;;;;;;;;;;5006229;28;20056;-63
2023/02/20 09:13:54;;;;;;;0.55;0.30;;;;;;;;;;5038354;28;20496;-64
2023/02/20 09:16:24;;;;;;;1.00;0.32;;;;;;;;;;5038368;28;20052;-64
2023/02/20 09:18:54;;;;;;;0.57;0.40;;;;;;;;;;5074096;28;20051;-63
2023/02/20 09:21:27;;;;;;;2.00;0.52;;;;;;;;;;5021667;28;20056;-63
2023/02/20 09:23:57;;;;;;;1.25;0.50;;;;;;;;;;5021957;28;20060;-63
2023/02/20 09:26:27;;;;;;;0.95;0.63;;;;;;;;;;5023422;28;20060;-64
2023/02/20 09:28:57;;;;;;;1.23;0.63;;;;;;;;;;5073646;28;20052;-64
2023/02/20 09:31:26;;;;;;;0.80;0.47;;;;;;;;;;5073871;28;20499;-64
2023/02/20 09:33:56;;;;;;;0.90;0.43;;;;;;;;;;5073595;28;20060;-64
2023/02/20 09:36:27;;;;;;;3.33;0.80;;;;;;;;;;5038274;28;20051;-64
2023/02/20 09:38:56;;;;;;;1.85;0.63;;;;;;;;;;5073304;28;20052;-64
2023/02/20 09:41:50;;;;;;;1.95;0.45;;;;;;;;;;5038643;28;20084;-63
2023/02/20 09:44:26;;;;;;;1.40;0.38;;;;;;;;;;5073481;28;20051;-64
2023/02/20 09:47:02;;;;;;;1.60;0.50;;;;;;;;;;5021648;28;20052;-64
2023/02/20 09:49:36;;;;;;;0.50;0.30;;;;;;;;;;5037611;28;20488;-63
2023/02/20 09:52:11;;;;;;;1.85;0.43;;;;;;;;;;5073413;28;20499;-63
2023/02/20 09:55:03;;;;;;;2.10;0.88;;;;;;;;;;5072813;28;20052;-63
2023/02/20 09:57:37;;;;;;;1.40;0.50;;;;;;;;;;5038419;28;20053;-63
2023/02/20 10:00:12;;;;;;;0.73;0.40;;;;;;;;;;5072966;28;20045;-62
2023/02/20 10:02:52;;;;;;;0.50;0.30;;;;;;;;;;4989831;28;20680;-63
2023/02/20 10:05:27;;;;;;;1.65;0.40;;;;;;;;;;5073273;28;20480;-65
2023/02/20 10:07:57;;;;;;;0.95;0.30;;;;;;;;;;5073225;28;20128;-62
2023/02/20 10:10:37;;;;;;;2.65;0.30;;;;;;;;;;5072666;28;20051;-63
2023/02/20 10:13:22;;;;;;;1.50;0.30;;;;;;;;;;5038106;28;20057;-63
2023/02/20 10:16:01;;;;;;;1.10;0.40;;;;;;;;;;5072749;28;20048;-63
2023/02/20 10:18:49;;;;;;;;;;;;;;;;;;5073020;28;20063;-63
2023/02/20 10:21:43;;;;;;;0.77;0.50;;;;;;;;;;5037058;28;19920;-63
2023/02/20 10:24:42;;;;;;;2.60;0.47;;;;;;;;;;5072577;28;20051;-63
2023/02/20 10:27:20;;;;;;;0.98;0.40;;;;;;;;;;5072415;28;20045;-63
2023/02/20 10:29:51;;;;;;;0.73;0.40;;;;;;;;;;5072776;28;20044;-63
2023/02/20 10:33:06;;;;;;;0.85;0.50;;;;;;;;;;5072465;28;20049;-64
2023/02/20 10:35:44;;;;;;;2.08;0.50;;;;;;;;;;4953971;28;20063;-63
2023/02/20 10:38:19;;;;;;;1.08;0.60;;;;;;;;;;4971373;28;20054;-63
2023/02/20 10:41:16;;;;;;;1.40;0.45;;;;;;;;;;4971168;28;20055;-63
2023/02/20 10:44:04;;;;;;;3.08;0.73;;;;;;;;;;4916702;29;20523;-63
2023/02/20 10:46:40;;;;;;;1.75;0.75;;;;;;;;;;4916851;29;20408;-63
2023/02/20 10:49:41;;;;;;;3.72;1.10;;;;;;;;;;4932960;29;20444;-63
2023/02/20 10:52:16;;;;;;;1.60;0.88;;;;;;;;;;4913688;29;20056;-63
2023/02/20 10:55:25;;;;;;;3.97;0.82;;;;;;;;;;4913692;29;20064;-63
2023/02/20 10:58:31;;;;;;;1.85;0.93;;;;;;;;;;4913748;29;20428;-63
2023/02/20 11:01:13;;;;;;;2.33;1.00;;;;;;;;;;4875621;29;20057;-63
2023/02/20 11:03:52;;;;;;;2.05;0.82;;;;;;;;;;4876051;29;20548;-63
2023/02/20 11:06:30;;;;;;;2.40;0.65;;;;;;;;;;4875084;29;20068;-63
2023/02/20 11:08:59;;;;;;;2.58;0.80;;;;;;;;;;4875813;29;20418;-63
2023/02/20 11:11:31;;;;;;;1.48;0.73;;;;;;;;;;4879502;29;20068;-64
2023/02/20 11:14:28;;;;;;;4.00;0.55;;;;;;;;;;4866661;29;20063;-63
2023/02/20 11:17:14;;;;;;;2.90;1.20;;;;;;;;;;4878854;29;20434;-63
2023/02/20 11:19:52;;;;;;;2.65;0.90;;;;;;;;;;4863916;29;20529;-63
2023/02/20 11:22:45;;;;;;;2.63;0.80;;;;;;;;;;4912911;29;20060;-63
2023/02/20 11:25:18;;;;;;;2.92;0.73;;;;;;;;;;4913385;29;20064;-62
2023/02/20 11:27:51;;;;;;;1.60;0.98;;;;;;;;;;4881931;29;20619;-63
2023/02/20 11:30:31;;;;;;;2.10;0.68;;;;;;;;;;4963706;28;20049;-63
2023/02/20 11:33:07;;;;;;;2.85;0.80;;;;;;;;;;4990309;28;20074;-63
2023/02/20 11:35:50;;;;;;;1.98;0.77;;;;;;;;;;4951099;28;20054;-62
2023/02/20 11:38:21;;;;;;;1.90;0.85;;;;;;;;;;4942301;28;20507;-62
2023/02/20 11:40:59;;;;;;;1.10;0.70;;;;;;;;;;4970561;28;20070;-62
2023/02/20 11:43:44;;;;;;;2.05;1.17;;;;;;;;;;4922699;28;20423;-63
2023/02/20 11:46:28;;;;;;;4.70;1.10;;;;;;;;;;4970225;28;20428;-63
2023/02/20 11:49:09;;;;;;;1.73;1.00;;;;;;;;;;4970592;28;20059;-63
2023/02/20 11:51:42;;;;;;;2.88;1.30;;;;;;;;;;4970257;28;20061;-63
2023/02/20 11:54:28;;;;;;;5.40;1.38;;;;;;;;;;4999232;28;20054;-62
2023/02/20 11:57:15;;;;;;;2.47;1.88;;;;;;;;;;4996093;28;20413;-63
2023/02/20 11:59:50;;;;;;;2.40;1.58;;;;;;;;;;5029064;28;20075;-63
2023/02/20 12:02:24;;;;;;;2.53;1.30;;;;;;;;;;5029212;28;20042;-62
2023/02/20 12:05:12;;;;;;;3.83;1.52;;;;;;;;;;5029034;28;20077;-63
2023/02/20 12:07:52;;;;;;;2.55;1.38;;;;;;;;;;5028750;28;20049;-63
2023/02/20 12:10:31;;;;;;;2.88;1.40;;;;;;;;;;4979748;28;20050;-63
2023/02/20 12:13:02;;;;;;;2.80;1.55;;;;;;;;;;5045754;28;20064;-63
2023/02/20 12:15:32;;;;;;;3.40;1.63;;;;;;;;;;5019092;28;20048;-63
2023/02/20 12:18:14;;;;;;;3.65;1.90;;;;;;;;;;5039443;28;20067;-63
2023/02/20 12:21:13;;;;;;;3.90;1.83;;;;;;;;;;5074435;28;20060;-63
2023/02/20 12:23:47;;;;;;;2.55;1.20;;;;;;;;;;4941508;28;20094;-63
2023/02/20 12:26:32;;;;;;;3.33;1.25;;;;;;;;;;4973874;28;20070;-65
2023/02/20 12:29:26;;;;;;;1.80;1.20;;;;;;;;;;4973646;28;20106;-65
2023/02/20 12:32:24;;;;;;;2.88;1.33;;;;;;;;;;4942123;28;20051;-66
2023/02/20 12:35:00;;;;;;;1.58;1.00;;;;;;;;;;4973552;28;20462;-65
2023/02/20 12:38:00;;;;;;;5.55;1.70;;;;;;;;;;4941479;28;20063;-65
2023/02/20 12:40:32;;;;;;;1.85;0.95;;;;;;;;;;4957121;28;20543;-64
2023/02/20 12:43:14;;;;;;;1.95;1.02;;;;;;;;;;4973638;28;20051;-65
2023/02/20 12:45:47;;;;;;;1.65;1.00;;;;;;;;;;4973547;28;20051;-63
2023/02/20 12:48:29;;;;;;;2.33;0.95;;;;;;;;;;4973258;28;20062;-66
2023/02/20 12:51:18;;;;;;;13.27;6.57;;;;;;;;;;4973240;28;20423;-64
2023/02/20 12:54:23;;;;;;;8.90;4.35;;;;;;;;;;4973341;28;20774;-64
2023/02/20 12:57:06;;;;;;;5.15;2.67;;;;;;;;;;4973436;28;20490;-66
2023/02/20 13:00:00;;;;;;;5.57;1.85;;;;;;;;;;4973512;28;20380;-66
2023/02/20 13:02:40;;;;;;;41.28;30.17;;;;;;;;;;5024357;28;20408;-66
2023/02/20 13:05:19;;;;;;;7.07;4.10;;;;;;;;;;5022217;28;20052;-62
2023/02/20 13:07:54;;;;;;;8.50;3.60;;;;;;;;;;5073796;28;20052;-65
2023/02/20 13:10:30;;;;;;;10.18;5.38;;;;;;;;;;5074176;28;20044;-64
2023/02/20 13:13:00;;;;;;;9.57;4.35;;;;;;;;;;5040353;28;20060;-63
2023/02/20 13:15:53;;;;;;;5.03;2.50;;;;;;;;;;5073961;28;20040;-64
2023/02/20 13:18:30;;;;;;;7.63;2.92;;;;;;;;;;5023549;28;20060;-63
2023/02/20 13:21:10;;;;;;;6.32;2.58;;;;;;;;;;5073518;28;20040;-63
2023/02/20 13:23:41;;;;;;;3.15;1.92;;;;;;;;;;5074041;28;20435;-65
2023/02/20 13:26:30;;;;;;;3.58;1.65;;;;;;;;;;5073881;28;20392;-66
2023/02/20 13:29:26;;;;;;;2.50;1.10;;;;;;;;;;5054195;28;20048;-65
2023/02/20 13:32:19;;;;;;;2.22;0.95;;;;;;;;;;4972651;28;20047;-63
2023/02/20 13:34:49;;;;;;;2.17;0.93;;;;;;;;;;4918022;29;20083;-65
2023/02/20 13:37:37;;;;;;;8.77;3.47;;;;;;;;;;4901740;29;20055;-65
2023/02/20 13:40:27;;;;;;;4.78;2.20;;;;;;;;;;4903070;29;20043;-64
2023/02/20 13:43:14;;;;;;;3.58;1.92;;;;;;;;;;4933896;29;20059;-65
2023/02/20 13:45:49;;;;;;;3.33;1.50;;;;;;;;;;4902413;29;20056;-67
2023/02/20 13:48:29;;;;;;;4.68;1.83;;;;;;;;;;4933773;29;20059;-66
2023/02/20 13:51:21;;;;;;;5.22;2.10;;;;;;;;;;4933860;29;20055;-65
2023/02/20 13:54:00;;;;;;;4.70;2.22;;;;;;;;;;4933942;29;20462;-65
2023/02/20 13:56:44;;;;;;;3.05;1.50;;;;;;;;;;4917590;29;20748;-65
2023/02/20 13:59:17;;;;;;;3.78;1.80;;;;;;;;;;4917646;29;20067;-66
2023/02/20 14:01:54;;;;;;;3.45;2.03;;;;;;;;;;4933906;29;20056;-66
2023/02/20 14:04:25;;;;;;;3.13;1.52;;;;;;;;;;4885952;29;20530;-66
2023/02/20 14:06:56;;;;;;;2.85;1.65;;;;;;;;;;4876328;29;20053;-65
2023/02/20 14:09:32;;;;;;;4.00;1.25;;;;;;;;;;4902462;29;20509;-65
2023/02/20 14:12:13;;;;;;;3.80;1.42;;;;;;;;;;4955267;28;20421;-65
2023/02/20 14:14:45;;;;;;;4.72;1.75;;;;;;;;;;4991262;28;20486;-65
2023/02/20 14:17:21;;;;;;;1.75;1.20;;;;;;;;;;4991330;28;20050;-64
2023/02/20 14:19:59;;;;;;;2.65;1.33;;;;;;;;;;4991207;28;20055;-62
2023/02/20 14:22:41;;;;;;;;;;;;;;;;;;4991283;28;20042;-62
2023/02/20 14:25:11;;;;;;;3.95;1.48;;;;;;;;;;4975049;28;20392;-63
2023/02/20 14:27:41;;;;;;;3.13;1.20;;;;;;;;;;4991116;28;20051;-63
2023/02/20 14:30:15;;;;;;;3.28;1.10;;;;;;;;;;4991074;28;20077;-65
2023/02/20 14:32:51;;;;;;;1.67;0.95;;;;;;;;;;4991094;28;20066;-64
2023/02/20 14:35:33;;;;;;;1.85;1.20;;;;;;;;;;4974438;28;20058;-64
2023/02/20 14:38:25;;;;;;;1.80;1.13;;;;;;;;;;4990603;28;20540;-64
2023/02/20 14:40:58;;;;;;;3.13;2.25;;;;;;;;;;4990830;28;20054;-64
2023/02/20 14:43:29;;;;;;;1.60;0.90;;;;;;;;;;4993256;28;20054;-64
2023/02/20 14:46:04;;;;;;;2.60;1.00;;;;;;;;;;5032600;28;20049;-65
2023/02/20 14:48:40;;;;;;;3.58;1.10;;;;;;;;;;5032304;28;20056;-65
2023/02/20 14:51:14;;;;;;;1.45;0.98;;;;;;;;;;5032712;28;20049;-65
2023/02/20 14:53:55;;;;;;;1.67;1.08;;;;;;;;;;5030123;28;20061;-64
2023/02/20 14:56:25;;;;;;;1.73;1.15;;;;;;;;;;5030004;28;20081;-65
2023/02/20 14:58:55;;;;;;;2.45;0.90;;;;;;;;;;5032359;28;20045;-63
2023/02/20 15:01:36;;;;;;;2.17;1.17;;;;;;;;;;5032475;28;20064;-62
2023/02/20 15:04:17;;;;;;;2.50;1.20;;;;;;;;;;5013528;28;20529;-62
2023/02/20 15:06:50;;;;;;;2.90;1.00;;;;;;;;;;5020713;28;20048;-62
2023/02/20 15:09:22;;;;;;;2.05;1.00;;;;;;;;;;5071851;28;20114;-62
2023/02/20 15:11:55;;;;;;;3.03;1.08;;;;;;;;;;5020214;28;20519;-62
2023/02/20 15:14:28;;;;;;;3.25;1.20;;;;;;;;;;5036764;28;20055;-64
2023/02/20 15:17:19;;;;;;;3.42;1.70;;;;;;;;;;5019980;28;20049;-63
2023/02/20 15:19:51;;;;;;;1.42;0.82;;;;;;;;;;5071934;28;20071;-61
2023/02/20 15:22:35;;;;;;;1.90;1.10;;;;;;;;;;5071341;28;20041;-62
2023/02/20 15:25:25;;;;;;;5.03;1.40;;;;;;;;;;5048870;28;20059;-62
2023/02/20 15:28:17;;;;;;;1.63;1.10;;;;;;;;;;4999931;28;20057;-63
2023/02/20 15:31:02;;;;;;;3.92;1.13;;;;;;;;;;5049317;28;20096;-64
2023/02/20 15:33:38;;;;;;;3.00;1.23;;;;;;;;;;5032962;28;20060;-63
2023/02/20 15:36:16;;;;;;;3.50;1.30;;;;;;;;;;5049385;28;20056;-64
2023/02/20 15:38:46;;;;;;;3.47;1.33;;;;;;;;;;5049150;28;20052;-64
2023/02/20 15:41:17;;;;;;;2.47;1.20;;;;;;;;;;5009280;28;20061;-64
2023/02/20 15:43:47;;;;;;;5.70;3.10;;;;;;;;;;4961407;28;20053;-65
2023/02/20 15:46:20;;;;;;;8.70;3.47;;;;;;;;;;4993072;28;20504;-64
2023/02/20 15:48:49;;;;;;;20.30;8.55;;;;;;;;;;5009107;28;20576;-64
2023/02/20 15:51:22;;;;;;;3.65;1.48;;;;;;;;;;5010363;28;20049;-62
2023/02/20 15:53:55;;;;;;;5.38;1.90;;;;;;;;;;5013388;28;20065;-62